Time;durP1;ratioP1;P1;durP2;ratioP2;P2;SDS_P1;SDS_P2;PMS_P1;PMS_P2;Temp;Humidity;BMP_temperature;BMP_pressure;BME280_temperature;BME280_humidity;BME280_pressure;Samples;Min_cycle;Max_cycle;Signal;HPM_P1;HPM_P2
2023/08/07 00:00:50;;;;;;;0.93;0.70;;;;;;;12.78;100.00;97950.59;18435163;32;20057;-60
2023/08/07 00:10:53;;;;;;;3.08;0.80;;;;;;;12.81;100.00;97961.72;18427076;32;20380;-61
2023/08/07 00:20:56;;;;;;;2.08;1.05;;;;;;;12.83;100.00;97951.37;18440351;32;20095;-60
2023/08/07 00:30:59;;;;;;;2.05;1.00;;;;;;;12.83;100.00;97954.09;18440118;32;20441;-60
2023/08/07 00:41:02;;;;;;;1.65;0.90;;;;;;;12.76;100.00;97959.00;18439046;32;20110;-60
2023/08/07 00:51:07;;;;;;;2.65;0.90;;;;;;;12.69;100.00;97961.22;18424363;32;20080;-61
2023/08/07 01:01:10;;;;;;;3.30;0.70;;;;;;;12.69;100.00;97961.22;18438059;32;20061;-60
2023/08/07 01:11:45;;;;;;;1.00;0.70;;;;;;;12.73;100.00;97964.16;18430078;32;20496;-60
2023/08/07 01:21:49;;;;;;;2.58;0.88;;;;;;;12.77;100.00;97967.97;18436682;32;20061;-60
2023/08/07 01:31:55;;;;;;;1.20;0.77;;;;;;;12.79;100.00;97969.31;18436154;32;20357;-61
2023/08/07 01:42:00;;;;;;;2.28;0.98;;;;;;;12.80;100.00;97968.22;18421923;32;20065;-61
2023/08/07 01:52:03;;;;;;;1.27;0.95;;;;;;;12.84;100.00;97984.75;18434565;32;20113;-61
2023/08/07 02:02:06;;;;;;;2.30;0.90;;;;;;;12.84;100.00;97999.16;18434289;32;20083;-60
2023/08/07 02:12:09;;;;;;;2.40;0.93;;;;;;;12.82;100.00;97990.44;18413613;32;20101;-61
2023/08/07 02:22:12;;;;;;;0.93;0.70;;;;;;;12.82;100.00;97985.03;18432380;32;20366;-61
2023/08/07 02:32:15;;;;;;;1.08;0.88;;;;;;;12.79;100.00;97993.72;18432497;32;20128;-61
2023/08/07 02:42:18;;;;;;;3.25;0.70;;;;;;;12.79;100.00;97995.63;18431861;32;20347;-61
2023/08/07 02:52:21;;;;;;;1.02;0.70;;;;;;;12.80;100.00;97987.22;18431205;32;20054;-61
2023/08/07 03:02:24;;;;;;;1.48;0.90;;;;;;;12.81;100.00;97988.03;18431105;32;20167;-61
2023/08/07 03:12:27;;;;;;;2.12;0.90;;;;;;;12.81;100.00;97997.00;18430799;32;20066;-61
2023/08/07 03:22:30;;;;;;;1.35;0.80;;;;;;;12.79;100.00;97998.34;18430489;32;20069;-60
2023/08/07 03:32:33;;;;;;;1.80;0.80;;;;;;;12.71;100.00;98000.53;18432420;32;20069;-60
2023/08/07 03:42:36;;;;;;;2.37;1.08;;;;;;;12.67;100.00;98009.50;18442740;32;20394;-60
2023/08/07 03:52:39;;;;;;;1.50;0.70;;;;;;;12.65;100.00;98000.84;18423978;32;20394;-60
2023/08/07 04:02:42;;;;;;;1.65;0.77;;;;;;;12.62;100.00;97999.50;18439158;32;20058;-60
2023/08/07 04:12:44;;;;;;;1.77;0.70;;;;;;;12.58;100.00;97997.59;18441115;32;20121;-61
2023/08/07 04:22:47;;;;;;;1.90;0.77;;;;;;;12.51;100.00;97993.28;18426455;32;20068;-60
2023/08/07 04:32:50;;;;;;;2.15;0.70;;;;;;;12.45;100.00;97999.78;18425982;32;20053;-59
2023/08/07 04:42:53;;;;;;;1.08;0.80;;;;;;;12.46;100.00;98008.75;18438464;32;20053;-59
2023/08/07 04:52:56;;;;;;;3.08;0.80;;;;;;;12.44;100.00;98008.19;18423207;32;20062;-59
2023/08/07 05:02:59;;;;;;;1.02;0.62;;;;;;;12.44;100.00;98019.03;18438261;32;20370;-59
2023/08/07 05:13:03;;;;;;;1.55;0.80;;;;;;;12.45;100.00;98017.97;18423543;32;20057;-59
2023/08/07 05:23:07;;;;;;;1.10;0.70;;;;;;;12.52;100.00;98018.47;18410300;32;20061;-59
2023/08/07 05:33:10;;;;;;;2.97;0.75;;;;;;;12.54;100.00;98019.84;18436175;32;20446;-59
2023/08/07 05:43:13;;;;;;;4.18;1.05;;;;;;;12.60;100.00;98027.97;18435881;32;20365;-59
2023/08/07 05:53:16;;;;;;;1.10;0.80;;;;;;;12.65;100.00;98036.09;18434184;32;20366;-59
2023/08/07 06:03:18;;;;;;;1.42;0.80;;;;;;;12.73;100.00;98034.72;18407281;32;20359;-59
2023/08/07 06:13:21;;;;;;;3.30;0.80;;;;;;;12.82;100.00;98042.00;18419013;32;20053;-59
2023/08/07 06:23:38;;;;;;;2.08;1.02;;;;;;;12.87;100.00;98052.88;18418607;32;20459;-59
2023/08/07 06:33:42;;;;;;;1.40;0.88;;;;;;;12.86;100.00;98070.22;18432531;32;20347;-59
2023/08/07 06:43:45;;;;;;;1.53;0.80;;;;;;;12.83;100.00;98054.50;18425402;32;20389;-59
2023/08/07 06:53:47;;;;;;;1.45;1.00;;;;;;;12.92;100.00;98065.59;18431223;32;20086;-59
2023/08/07 07:03:52;;;;;;;1.30;0.80;;;;;;;12.99;100.00;98078.88;18404427;32;20129;-59
2023/08/07 07:13:55;;;;;;;1.23;0.88;;;;;;;13.15;100.00;98094.03;18421923;32;20140;-60
2023/08/07 07:23:58;;;;;;;2.55;0.90;;;;;;;13.33;100.00;98100.78;18451936;32;20061;-60
2023/08/07 07:34:02;;;;;;;1.17;0.88;;;;;;;13.60;100.00;98123.25;18438014;32;20092;-59
2023/08/07 07:44:07;;;;;;;1.53;0.90;;;;;;;13.92;100.00;98127.44;18451420;32;20057;-60
2023/08/07 07:54:10;;;;;;;2.65;0.77;;;;;;;14.23;100.00;98126.13;18451001;32;20057;-59
2023/08/07 08:04:17;;;;;;;1.37;0.70;;;;;;;14.63;100.00;98122.62;18450899;32;20070;-59
2023/08/07 08:14:20;;;;;;;1.37;0.82;;;;;;;14.82;100.00;98134.41;18450681;32;20065;-59
2023/08/07 08:24:23;;;;;;;1.12;0.60;;;;;;;14.95;100.00;98149.28;18442915;32;20099;-59
2023/08/07 08:34:28;;;;;;;1.87;0.70;;;;;;;15.01;100.00;98145.41;18418880;32;20072;-59
2023/08/07 08:44:36;;;;;;;2.62;0.80;;;;;;;15.11;100.00;98146.41;18439059;32;20046;-60
2023/08/07 08:54:41;;;;;;;1.27;0.77;;;;;;;15.39;100.00;98147.47;18438563;32;20091;-60
2023/08/07 09:04:45;;;;;;;1.87;0.85;;;;;;;15.60;100.00;98150.75;18438217;32;20075;-59
2023/08/07 09:14:54;;;;;;;1.65;0.68;;;;;;;15.92;100.00;98161.03;18437115;32;20126;-59
2023/08/07 09:25:00;;;;;;;1.83;0.85;;;;;;;16.32;100.00;98157.19;18436536;32;20061;-60
2023/08/07 09:35:04;;;;;;;1.37;0.60;;;;;;;16.52;100.00;98156.87;18435590;32;20060;-59
2023/08/07 09:45:25;;;;;;;1.75;0.77;;;;;;;16.80;100.00;98164.37;18435491;32;20080;-59
2023/08/07 09:55:28;;;;;;;1.25;0.70;;;;;;;16.95;100.00;98164.13;18307286;32;20450;-59
2023/08/07 10:05:32;;;;;;;0.67;0.53;;;;;;;16.58;100.00;98183.00;18306389;32;20066;-59
2023/08/07 10:15:36;;;;;;;;;;;;;;;16.54;100.00;98182.00;18306135;32;20113;-59
2023/08/07 10:25:42;;;;;;;1.20;0.85;;;;;;;16.80;100.00;98181.59;18305307;32;20008;-59
2023/08/07 10:35:50;;;;;;;1.00;0.55;;;;;;;17.34;100.00;98184.75;18305075;32;20154;-59
2023/08/07 10:46:05;;;;;;;2.05;0.57;;;;;;;17.70;100.00;98188.72;18308345;32;20053;-59
2023/08/07 10:56:16;;;;;;;1.33;0.60;;;;;;;17.45;100.00;98183.44;18431474;32;20437;-59
2023/08/07 11:06:48;;;;;;;1.08;0.50;;;;;;;17.99;100.00;98168.47;18417628;32;20057;-59
2023/08/07 11:16:53;;;;;;;1.10;0.40;;;;;;;18.51;100.00;98168.94;18423081;32;20061;-59
2023/08/07 11:26:58;;;;;;;0.77;0.60;;;;;;;18.70;100.00;98181.66;18430731;32;20076;-60
2023/08/07 11:37:06;;;;;;;0.35;0.30;;;;;;;18.81;100.00;98166.56;18416230;32;20456;-60
2023/08/07 11:47:11;;;;;;;2.90;0.52;;;;;;;19.57;96.68;98152.00;18402910;32;20042;-60
2023/08/07 11:57:24;;;;;;;0.50;0.40;;;;;;;20.09;89.48;98154.09;18436020;32;20106;-60
2023/08/07 12:07:29;;;;;;;1.83;0.45;;;;;;;20.80;88.55;98174.97;18441580;32;20060;-60
2023/08/07 12:17:38;;;;;;;1.60;0.45;;;;;;;20.75;93.34;98158.66;18440902;32;20399;-60
2023/08/07 12:27:41;;;;;;;0.80;0.50;;;;;;;21.04;82.78;98164.59;18440280;32;20066;-59
2023/08/07 12:37:44;;;;;;;0.43;0.32;;;;;;;19.74;92.78;98197.09;18425547;32;20064;-59
2023/08/07 12:47:47;;;;;;;0.75;0.45;;;;;;;18.85;100.00;98183.22;18424875;32;20407;-59
2023/08/07 12:57:53;;;;;;;0.95;0.32;;;;;;;19.60;96.15;98187.03;18438361;32;20061;-59
2023/08/07 13:07:58;;;;;;;1.30;0.40;;;;;;;20.74;96.60;98176.25;18404080;32;20368;-59
2023/08/07 13:18:01;;;;;;;1.08;0.50;;;;;;;20.22;89.01;98177.03;18437308;32;20094;-59
2023/08/07 13:28:06;;;;;;;0.60;0.40;;;;;;;21.23;84.86;98173.25;18436461;32;20057;-60
2023/08/07 13:38:10;;;;;;;0.68;0.50;;;;;;;21.46;72.21;98186.75;18435850;32;20061;-59
2023/08/07 13:48:14;;;;;;;1.58;0.52;;;;;;;21.72;82.39;98194.97;18434808;32;20357;-60
2023/08/07 13:58:17;;;;;;;0.93;0.40;;;;;;;22.89;86.89;98188.00;18419097;32;20350;-60
2023/08/07 14:08:21;;;;;;;1.15;0.50;;;;;;;24.26;67.86;98180.72;18414665;32;20350;-60
2023/08/07 14:18:24;;;;;;;1.17;0.40;;;;;;;24.14;60.03;98195.34;18419303;32;20101;-59
2023/08/07 14:28:28;;;;;;;;;;;;;;;22.72;68.48;98200.00;18419027;32;20068;-59
2023/08/07 14:38:35;;;;;;;3.20;0.80;;;;;;;21.65;75.71;98217.50;18432742;32;19962;-59
2023/08/07 14:48:37;;;;;;;;;;;;;;;20.14;73.40;98232.75;18417617;32;20103;-59
2023/08/07 14:58:41;;;;;;;0.73;0.50;;;;;;;19.45;96.74;98207.44;18425508;32;19986;-59
2023/08/07 15:08:44;;;;;;;;;;;;;;;19.37;95.74;98194.50;18431557;32;20369;-59
2023/08/07 15:18:47;;;;;;;1.00;0.50;;;;;;;19.74;99.19;98197.88;18431734;32;19956;-59
2023/08/07 15:28:51;;;;;;;1.30;0.50;;;;;;;19.89;98.49;98188.44;18433058;32;20117;-59
2023/08/07 15:38:55;;;;;;;1.52;0.40;;;;;;;20.01;95.87;98189.75;18443330;32;20104;-59
2023/08/07 15:48:59;;;;;;;1.90;0.62;;;;;;;19.97;100.00;98165.69;18442276;32;20053;-59
2023/08/07 15:59:03;;;;;;;0.80;0.50;;;;;;;20.37;86.88;98159.28;18428101;32;20054;-59
2023/08/07 16:09:07;;;;;;;1.05;0.40;;;;;;;20.05;96.15;98164.09;18441437;32;20129;-59
2023/08/07 16:19:11;;;;;;;;;;;;;;;19.87;91.15;98152.28;18441014;32;20106;-59
2023/08/07 16:29:15;;;;;;;1.25;0.50;;;;;;;19.61;95.40;98150.25;18441009;32;19953;-59
2023/08/07 16:39:18;;;;;;;0.80;0.62;;;;;;;19.41;100.00;98151.63;18425347;32;20061;-59
2023/08/07 16:49:22;;;;;;;1.40;0.50;;;;;;;19.43;100.00;98148.56;18432285;32;20124;-59
2023/08/07 16:59:26;;;;;;;;;;;;;;;20.19;100.00;98142.00;18438703;32;20065;-59
2023/08/07 17:09:30;;;;;;;1.60;0.60;;;;;;;19.74;100.00;98129.28;18423774;32;19968;-59
2023/08/07 17:19:33;;;;;;;2.03;0.60;;;;;;;19.34;100.00;98134.81;18437253;32;20446;-59
2023/08/07 17:29:36;;;;;;;1.25;0.55;;;;;;;19.02;100.00;98139.50;18436699;32;20083;-59
2023/08/07 17:39:40;;;;;;;1.00;0.60;;;;;;;18.72;100.00;98135.56;18435840;32;20068;-59
2023/08/07 17:49:43;;;;;;;2.53;0.85;;;;;;;18.39;100.00;98142.13;18434903;32;20102;-59
2023/08/07 17:59:47;;;;;;;1.20;0.50;;;;;;;18.12;100.00;98143.00;18434691;32;20083;-59
2023/08/07 18:09:51;;;;;;;1.55;0.80;;;;;;;17.90;100.00;98133.59;18434147;32;20056;-59
2023/08/07 18:19:54;;;;;;;1.05;0.60;;;;;;;17.81;100.00;98134.63;18433515;32;20068;-59
2023/08/07 18:29:58;;;;;;;1.70;0.73;;;;;;;17.65;100.00;98134.13;18432938;32;20100;-58
2023/08/07 18:40:04;;;;;;;0.80;0.50;;;;;;;17.37;100.00;98143.16;18426363;32;20098;-59
2023/08/07 18:50:08;;;;;;;1.70;0.57;;;;;;;17.06;100.00;98134.72;18431406;32;20152;-58
2023/08/07 19:00:12;;;;;;;1.45;0.82;;;;;;;16.75;100.00;98132.50;18431503;32;20115;-58
2023/08/07 19:10:17;;;;;;;1.40;1.00;;;;;;;16.36;100.00;98133.66;18416147;32;20104;-58
2023/08/07 19:20:21;;;;;;;1.25;0.77;;;;;;;16.03;100.00;98133.59;18417147;32;20106;-58
2023/08/07 19:30:25;;;;;;;1.27;0.80;;;;;;;15.71;100.00;98126.91;18430647;32;20075;-58
2023/08/07 19:40:32;;;;;;;1.48;0.70;;;;;;;15.41;100.00;98134.37;18416664;32;20402;-59
2023/08/07 19:50:40;;;;;;;2.20;0.90;;;;;;;15.14;100.00;98138.44;18429524;32;20076;-59
2023/08/07 20:00:44;;;;;;;3.85;0.75;;;;;;;14.85;100.00;98138.47;18429622;32;20069;-59
2023/08/07 20:10:48;;;;;;;1.45;0.75;;;;;;;14.48;100.00;98148.00;18429164;32;20076;-59
2023/08/07 20:20:53;;;;;;;1.62;1.05;;;;;;;14.25;100.00;98142.19;18438386;32;20065;-58
2023/08/07 20:30:58;;;;;;;1.80;0.90;;;;;;;14.05;100.00;98140.41;18433748;32;20125;-58
2023/08/07 20:41:02;;;;;;;1.42;0.80;;;;;;;13.78;100.00;98136.19;18439732;32;20062;-58
2023/08/07 20:51:05;;;;;;;2.75;0.70;;;;;;;13.47;100.00;98135.50;18424978;32;20057;-58
2023/08/07 21:01:09;;;;;;;1.70;0.90;;;;;;;13.27;100.00;98139.09;18438980;32;20111;-58
2023/08/07 21:11:14;;;;;;;3.37;1.10;;;;;;;13.11;100.00;98127.47;18437820;32;20486;-58
2023/08/07 21:21:21;;;;;;;2.15;1.37;;;;;;;12.92;100.00;98117.16;18430858;32;20078;-58
2023/08/07 21:31:30;;;;;;;3.28;1.10;;;;;;;12.77;100.00;98117.19;18435804;32;20069;-58
2023/08/07 21:41:35;;;;;;;2.47;0.93;;;;;;;12.60;100.00;98112.06;18435893;32;20069;-58
2023/08/07 21:51:38;;;;;;;3.43;0.70;;;;;;;12.56;100.00;98113.69;18435420;32;20098;-59
2023/08/07 22:01:42;;;;;;;1.80;0.88;;;;;;;12.43;100.00;98110.44;18434560;32;20076;-59
2023/08/07 22:11:46;;;;;;;2.50;0.85;;;;;;;12.33;100.00;98118.56;18434244;32;20069;-58
2023/08/07 22:21:54;;;;;;;1.48;0.60;;;;;;;12.16;100.00;98116.91;18433558;32;20380;-59
2023/08/07 22:32:01;;;;;;;1.55;0.90;;;;;;;12.13;100.00;98100.41;18407610;32;20373;-59
2023/08/07 22:42:04;;;;;;;2.47;1.37;;;;;;;12.08;100.00;98095.78;18432466;32;20053;-58
2023/08/07 22:52:08;;;;;;;2.25;0.73;;;;;;;12.03;100.00;98103.87;18404815;32;20057;-59
2023/08/07 23:02:11;;;;;;;1.20;0.80;;;;;;;11.97;100.00;98091.44;18417199;32;20133;-59
2023/08/07 23:12:16;;;;;;;1.73;0.82;;;;;;;11.85;100.00;98080.78;18424520;32;20061;-58
2023/08/07 23:22:22;;;;;;;1.00;0.60;;;;;;;11.79;100.00;98073.75;18430871;32;20110;-59
2023/08/07 23:32:25;;;;;;;3.47;0.62;;;;;;;11.72;100.00;98071.28;18430617;32;20056;-59
2023/08/07 23:42:29;;;;;;;1.20;0.62;;;;;;;11.65;100.00;98070.75;18430227;32;20118;-59
2023/08/07 23:52:32;;;;;;;1.15;0.70;;;;;;;11.54;100.00;98056.34;18435150;32;20049;-59
